createdAt,value
2022-08-11T00:01:25.137Z,94.00
2022-08-11T00:04:01.267Z,94.10
2022-08-11T00:06:36.726Z,93.90
2022-08-11T00:09:08.037Z,94.20
2022-08-11T00:11:41.554Z,94.50
2022-08-11T00:14:16.078Z,94.00
2022-08-11T00:16:43.600Z,94.20
2022-08-11T00:19:11.662Z,94.60
2022-08-11T00:22:04.334Z,94.60
2022-08-11T00:24:34.499Z,94.60
2022-08-11T00:27:34.082Z,94.80
2022-08-11T00:30:01.486Z,94.80
2022-08-11T00:32:30.049Z,94.70
2022-08-11T00:35:55.429Z,95.00
2022-08-11T00:37:53.958Z,95.00
2022-08-11T00:40:37.570Z,95.00
2022-08-11T00:43:24.100Z,94.90
2022-08-11T00:46:12.894Z,95.10
2022-08-11T00:48:50.643Z,95.10
2022-08-11T00:52:05.860Z,95.20
2022-08-11T00:54:39.087Z,95.50
2022-08-11T00:57:42.550Z,95.60
2022-08-11T01:00:17.454Z,95.80
2022-08-11T01:03:10.490Z,96.00
2022-08-11T01:06:08.026Z,96.10
2022-08-11T01:08:56.538Z,96.00
2022-08-11T01:11:55.674Z,96.00
2022-08-11T01:14:48.401Z,96.00
2022-08-11T01:17:40.302Z,96.20
2022-08-11T01:20:46.458Z,96.20
2022-08-11T01:23:53.127Z,96.40
2022-08-11T01:27:19.092Z,96.50
2022-08-11T01:30:22.179Z,96.70
2022-08-11T01:33:26.923Z,97.00
2022-08-11T01:36:30.961Z,96.80
2022-08-11T01:39:14.038Z,96.90
2022-08-11T01:42:35.056Z,96.90
2022-08-11T01:45:25.333Z,97.10
2022-08-11T01:48:13.234Z,97.30
2022-08-11T01:50:54.161Z,97.50
2022-08-11T01:53:43.341Z,97.50
2022-08-11T01:56:19.342Z,97.50
2022-08-11T01:59:00.399Z,97.60
2022-08-11T02:01:50.430Z,97.60
2022-08-11T02:04:23.267Z,97.80
2022-08-11T02:07:15.175Z,98.10
2022-08-11T02:10:26.804Z,98.10
2022-08-11T02:13:34.066Z,98.30
2022-08-11T02:16:55.621Z,98.40
2022-08-11T02:19:52.297Z,98.70
2022-08-11T02:23:09.738Z,98.60
2022-08-11T02:26:02.163Z,98.80
2022-08-11T02:28:46.663Z,98.80
2022-08-11T02:32:25.168Z,99.10
2022-08-11T02:35:00.221Z,99.10
2022-08-11T02:37:45.912Z,99.40
2022-08-11T02:40:34.266Z,99.60
2022-08-11T02:43:18.078Z,99.70
2022-08-11T02:45:56.607Z,99.90
2022-08-11T02:49:04.002Z,99.90
2022-08-11T02:52:14.321Z,99.90
2022-08-11T02:54:59.611Z,99.90
2022-08-11T02:57:37.835Z,99.90
2022-08-11T03:00:10.957Z,99.90
2022-08-11T03:02:59.180Z,99.90
2022-08-11T03:05:53.007Z,99.90
2022-08-11T03:08:39.811Z,99.90
2022-08-11T03:12:01.603Z,99.90
2022-08-11T03:15:11.532Z,99.90
2022-08-11T03:17:47.208Z,99.90
2022-08-11T03:20:53.174Z,99.90
2022-08-11T03:23:39.386Z,99.90
2022-08-11T03:26:31.956Z,99.90
2022-08-11T03:29:01.882Z,99.90
2022-08-11T03:31:34.426Z,99.90
2022-08-11T03:34:13.530Z,99.90
2022-08-11T03:37:16.921Z,99.90
2022-08-11T03:40:06.574Z,99.90
2022-08-11T03:42:50.175Z,99.90
2022-08-11T03:45:25.049Z,99.90
2022-08-11T03:48:18.971Z,99.90
2022-08-11T03:50:57.672Z,99.90
2022-08-11T03:53:41.341Z,99.90
2022-08-11T03:56:11.592Z,99.90
2022-08-11T03:59:00.030Z,99.90
2022-08-11T04:02:04.553Z,99.90
2022-08-11T04:04:35.559Z,99.90
2022-08-11T04:07:47.098Z,99.90
2022-08-11T04:10:26.990Z,99.90
2022-08-11T04:13:15.649Z,99.90
2022-08-11T04:16:30.163Z,99.90
2022-08-11T04:19:37.043Z,99.90
2022-08-11T04:22:35.717Z,99.90
2022-08-11T04:25:57.989Z,99.90
2022-08-11T04:28:49.831Z,99.90
2022-08-11T04:31:52.456Z,99.90
2022-08-11T04:35:07.159Z,99.90
2022-08-11T04:38:11.386Z,99.90
2022-08-11T04:41:17.630Z,99.90
2022-08-11T04:44:18.372Z,99.90
2022-08-11T04:46:57.379Z,99.90
2022-08-11T04:50:28.508Z,99.90
2022-08-11T04:53:27.417Z,99.90
2022-08-11T04:56:21.881Z,99.90
2022-08-11T04:59:44.775Z,99.90
2022-08-11T05:02:30.295Z,99.90
2022-08-11T05:05:33.391Z,99.90
2022-08-11T05:08:35.420Z,99.90
2022-08-11T05:11:24.009Z,99.90
2022-08-11T05:14:32.047Z,99.90
2022-08-11T05:17:29.991Z,99.90
2022-08-11T05:20:15.360Z,99.90
2022-08-11T05:23:08.862Z,99.90
2022-08-11T05:26:43.387Z,99.90
2022-08-11T05:29:19.252Z,99.90
2022-08-11T05:32:14.310Z,99.90
2022-08-11T05:34:54.407Z,99.90
2022-08-11T05:37:31.941Z,99.90
2022-08-11T05:40:30.272Z,99.90
2022-08-11T05:43:18.623Z,99.90
2022-08-11T05:46:19.330Z,99.90
2022-08-11T05:49:06.123Z,99.90
2022-08-11T05:51:57.329Z,99.90
2022-08-11T05:54:51.775Z,99.90
2022-08-11T05:57:49.461Z,99.90
2022-08-11T06:00:14.673Z,99.90
2022-08-11T06:02:52.040Z,99.90
2022-08-11T06:05:31.495Z,99.90
2022-08-11T06:08:07.271Z,99.90
2022-08-11T06:10:40.691Z,99.90
2022-08-11T06:13:09.873Z,99.90
2022-08-11T06:15:52.268Z,99.90
2022-08-11T06:18:19.743Z,99.90
2022-08-11T06:20:55.079Z,99.90
2022-08-11T06:23:23.964Z,99.90
2022-08-11T06:25:52.920Z,99.90
2022-08-11T06:28:32.528Z,99.90
2022-08-11T06:31:00.027Z,99.90
2022-08-11T06:33:35.277Z,99.90
2022-08-11T06:36:23.148Z,99.90
2022-08-11T06:39:09.487Z,99.90
2022-08-11T06:41:48.430Z,99.90
2022-08-11T06:44:21.158Z,99.90
2022-08-11T06:46:54.634Z,99.90
2022-08-11T06:49:50.566Z,99.90
2022-08-11T06:52:35.330Z,99.90
2022-08-11T06:55:56.835Z,99.90
2022-08-11T06:58:41.134Z,99.90
2022-08-11T07:01:14.643Z,99.90
2022-08-11T07:03:46.539Z,99.90
2022-08-11T07:06:41.398Z,99.90
2022-08-11T07:10:17.570Z,99.90
2022-08-11T07:13:06.539Z,99.90
2022-08-11T07:16:12.065Z,99.90
2022-08-11T07:18:54.607Z,99.90
2022-08-11T07:22:01.536Z,99.90
2022-08-11T07:24:59.823Z,99.90
2022-08-11T07:27:57.626Z,99.90
2022-08-11T07:30:26.283Z,99.90
2022-08-11T07:32:56.887Z,99.90
2022-08-11T07:35:45.741Z,99.50
2022-08-11T07:38:25.168Z,99.70
2022-08-11T07:40:52.615Z,99.60
2022-08-11T07:43:19.866Z,99.20
2022-08-11T07:46:06.100Z,99.30
2022-08-11T07:48:53.261Z,98.60
2022-08-11T07:51:39.560Z,98.10
2022-08-11T07:54:17.186Z,98.10
2022-08-11T07:57:07.170Z,98.20
2022-08-11T08:00:03.477Z,97.90
2022-08-11T08:03:01.881Z,97.60
2022-08-11T08:05:48.623Z,97.10
2022-08-11T08:08:34.858Z,97.00
2022-08-11T08:11:27.542Z,97.10
2022-08-11T08:14:13.572Z,96.40
2022-08-11T08:16:59.961Z,96.30
2022-08-11T08:19:27.918Z,95.40
2022-08-11T08:21:55.258Z,95.00
2022-08-11T08:24:41.740Z,95.40
2022-08-11T08:27:12.492Z,94.40
2022-08-11T08:29:58.811Z,94.30
2022-08-11T08:32:27.805Z,94.40
2022-08-11T08:34:56.941Z,94.00
2022-08-11T08:37:46.087Z,94.10
2022-08-11T08:40:14.118Z,93.60
2022-08-11T08:42:48.368Z,93.80
2022-08-11T08:45:18.808Z,93.20
2022-08-11T08:48:04.098Z,93.40
2022-08-11T08:50:55.984Z,93.50
2022-08-11T08:53:31.836Z,93.50
2022-08-11T08:56:01.387Z,93.10
2022-08-11T08:58:30.055Z,92.50
2022-08-11T09:00:59.814Z,92.40
2022-08-11T09:04:04.575Z,93.10
2022-08-11T09:06:18.218Z,92.40
2022-08-11T09:08:46.085Z,92.40
2022-08-11T09:11:35.424Z,92.30
2022-08-11T09:14:05.870Z,92.60
2022-08-11T09:16:36.166Z,92.70
2022-08-11T09:19:04.117Z,92.50
2022-08-11T09:21:46.515Z,92.60
2022-08-11T09:24:36.290Z,92.30
2022-08-11T09:27:10.322Z,92.10
2022-08-11T09:29:38.488Z,92.40
2022-08-11T09:32:08.288Z,92.40
2022-08-11T09:34:37.119Z,92.20
2022-08-11T09:37:54.687Z,91.60
2022-08-11T09:40:31.490Z,91.30
2022-08-11T09:43:21.818Z,91.40
2022-08-11T09:45:51.514Z,91.20
2022-08-11T09:48:26.330Z,91.10
2022-08-11T09:50:56.688Z,90.50
2022-08-11T09:53:36.392Z,91.10
2022-08-11T09:56:34.296Z,90.40
2022-08-11T09:59:03.739Z,90.40
2022-08-11T10:01:37.641Z,90.00
2022-08-11T10:04:07.899Z,89.80
2022-08-11T10:06:57.777Z,89.60
2022-08-11T10:09:25.656Z,87.90
2022-08-11T10:11:58.242Z,88.00
2022-08-11T10:14:46.369Z,87.70
2022-08-11T10:17:15.968Z,86.40
2022-08-11T10:19:45.212Z,86.80
2022-08-11T10:22:50.620Z,87.00
2022-08-11T10:25:37.421Z,86.50
2022-08-11T10:28:28.178Z,84.80
2022-08-11T10:31:14.496Z,83.90
2022-08-11T10:34:00.825Z,83.20
2022-08-11T10:36:33.443Z,82.80
2022-08-11T10:39:02.394Z,82.50
2022-08-11T10:42:06.517Z,81.30
2022-08-11T10:44:39.295Z,83.50
2022-08-11T10:47:25.772Z,81.10
2022-08-11T10:50:12.510Z,80.30
2022-08-11T10:52:59.131Z,81.30
2022-08-11T10:55:45.088Z,80.40
2022-08-11T10:58:31.284Z,79.30
2022-08-11T11:01:00.504Z,79.90
2022-08-11T11:03:30.287Z,79.40
2022-08-11T11:06:28.901Z,78.90
2022-08-11T11:09:11.327Z,77.70
2022-08-11T11:12:02.128Z,77.80
2022-08-11T11:14:58.150Z,76.60
2022-08-11T11:17:56.828Z,75.40
2022-08-11T11:20:34.470Z,76.70
2022-08-11T11:23:47.275Z,77.10
2022-08-11T11:26:41.006Z,76.00
2022-08-11T11:29:16.972Z,75.90
2022-08-11T11:32:08.924Z,74.90
2022-08-11T11:34:54.124Z,75.90
2022-08-11T11:37:23.581Z,76.70
2022-08-11T11:39:51.360Z,76.30
2022-08-11T11:42:19.528Z,76.60
2022-08-11T11:44:47.974Z,75.60
2022-08-11T11:47:16.789Z,75.60
2022-08-11T11:49:44.996Z,76.30
2022-08-11T11:52:20.184Z,75.00
2022-08-11T11:54:51.427Z,74.40
2022-08-11T11:57:39.340Z,75.00
2022-08-11T12:00:33.178Z,74.50
2022-08-11T12:03:07.847Z,74.80
2022-08-11T12:05:37.324Z,74.80
2022-08-11T12:08:17.411Z,74.70
2022-08-11T12:10:48.406Z,73.70
2022-08-11T12:13:36.259Z,73.70
2022-08-11T12:16:32.980Z,73.70
2022-08-11T12:18:54.042Z,73.50
2022-08-11T12:21:21.761Z,73.20
2022-08-11T12:24:08.080Z,73.20
2022-08-11T12:27:16.504Z,73.90
2022-08-11T12:29:45.157Z,71.20
2022-08-11T12:32:12.297Z,72.10
2022-08-11T12:34:39.318Z,71.70
2022-08-11T12:37:12.903Z,70.70
2022-08-11T12:40:16.219Z,70.50
2022-08-11T12:43:21.246Z,70.70
2022-08-11T12:45:58.107Z,69.50
2022-08-11T12:49:00.898Z,68.70
2022-08-11T12:52:11.529Z,68.80
2022-08-11T12:54:57.182Z,69.50
2022-08-11T12:58:01.144Z,68.80
2022-08-11T13:00:49.922Z,69.00
2022-08-11T13:03:39.043Z,69.40
2022-08-11T13:06:07.288Z,69.50
2022-08-11T13:08:36.647Z,68.50
2022-08-11T13:11:23.080Z,67.20
2022-08-11T13:13:57.087Z,66.30
2022-08-11T13:16:29.056Z,66.00
2022-08-11T13:18:58.895Z,65.20
2022-08-11T13:21:27.939Z,65.50
2022-08-11T13:23:59.748Z,66.10
2022-08-11T13:26:47.507Z,66.30
2022-08-11T13:29:22.634Z,65.30
2022-08-11T13:31:51.413Z,65.00
2022-08-11T13:34:20.071Z,66.10
2022-08-11T13:36:51.867Z,65.80
2022-08-11T13:39:19.334Z,65.50
2022-08-11T13:41:48.473Z,62.70
2022-08-11T13:44:23.197Z,61.20
2022-08-11T13:46:55.130Z,60.00
2022-08-11T13:49:22.571Z,58.50
2022-08-11T13:51:50.086Z,57.10
2022-08-11T13:54:21.308Z,56.40
2022-08-11T13:56:52.873Z,56.00
2022-08-11T13:59:23.943Z,54.80
2022-08-11T14:02:21.776Z,54.60
2022-08-11T14:05:15.339Z,53.60
2022-08-11T14:07:52.454Z,53.70
2022-08-11T14:10:23.223Z,53.80
2022-08-11T14:13:22.248Z,54.70
2022-08-11T14:15:51.907Z,55.20
2022-08-11T14:18:32.062Z,55.70
2022-08-11T14:21:21.798Z,55.10
2022-08-11T14:23:54.888Z,54.90
2022-08-11T14:26:36.375Z,53.00
2022-08-11T14:29:08.385Z,52.60
2022-08-11T14:31:39.302Z,52.50
2022-08-11T14:34:12.540Z,52.60
2022-08-11T14:36:40.277Z,53.20
2022-08-11T14:39:13.394Z,52.50
2022-08-11T14:42:12.289Z,52.60
2022-08-11T14:45:10.720Z,52.10
2022-08-11T14:47:41.151Z,51.60
2022-08-11T14:50:13.994Z,51.50
2022-08-11T14:52:57.828Z,50.60
2022-08-11T14:55:48.074Z,50.20
2022-08-11T14:58:20.863Z,51.60
2022-08-11T15:00:53.350Z,51.70
2022-08-11T15:03:27.609Z,51.90
2022-08-11T15:05:58.509Z,51.60
2022-08-11T15:08:53.707Z,51.10
2022-08-11T15:11:48.864Z,50.20
2022-08-11T15:14:39.909Z,50.30
2022-08-11T15:17:10.097Z,49.90
2022-08-11T15:20:00.865Z,49.40
2022-08-11T15:22:46.923Z,49.10
2022-08-11T15:25:14.362Z,49.50
2022-08-11T15:28:04.273Z,48.30
2022-08-11T15:30:50.332Z,48.10
2022-08-11T15:33:38.302Z,48.00
2022-08-11T15:36:29.284Z,47.70
2022-08-11T15:39:03.777Z,48.20
2022-08-11T15:41:58.593Z,47.00
2022-08-11T15:45:05.476Z,47.30
2022-08-11T15:48:05.051Z,46.20
2022-08-11T15:50:36.866Z,46.00
2022-08-11T15:53:10.291Z,45.90
2022-08-11T15:55:39.176Z,46.80
2022-08-11T15:58:27.726Z,46.20
2022-08-11T16:01:14.877Z,46.40
2022-08-11T16:04:14.373Z,45.20
2022-08-11T16:06:55.769Z,45.50
2022-08-11T16:09:29.168Z,47.20
2022-08-11T16:12:09.009Z,48.80
2022-08-11T16:15:20.120Z,50.50
2022-08-11T16:17:52.066Z,52.60
2022-08-11T16:20:23.932Z,54.40
2022-08-11T16:23:01.230Z,54.80
2022-08-11T16:27:05.716Z,55.30
2022-08-11T16:28:18.761Z,55.30
2022-08-11T16:30:50.072Z,55.70
2022-08-11T16:33:48.080Z,55.70
2022-08-11T16:36:28.727Z,55.70
2022-08-11T16:38:57.987Z,56.60
2022-08-11T16:41:48.408Z,56.30
2022-08-11T16:44:37.165Z,56.50
2022-08-11T16:47:12.869Z,56.00
2022-08-11T16:49:52.184Z,56.00
2022-08-11T16:52:21.007Z,56.00
2022-08-11T16:54:48.270Z,56.60
2022-08-11T16:57:43.341Z,56.80
2022-08-11T17:00:14.802Z,57.50
2022-08-11T17:03:09.461Z,57.60
2022-08-11T17:05:57.758Z,57.80
2022-08-11T17:08:56.863Z,57.90
2022-08-11T17:11:50.185Z,58.10
2022-08-11T17:14:35.691Z,58.40
2022-08-11T17:17:06.610Z,58.20
2022-08-11T17:20:41.889Z,58.40
2022-08-11T17:22:48.730Z,58.40
2022-08-11T17:25:17.033Z,58.60
2022-08-11T17:27:46.400Z,58.80
2022-08-11T17:30:14.961Z,58.50
2022-08-11T17:33:05.578Z,58.90
2022-08-11T17:35:39.233Z,59.00
2022-08-11T17:38:08.532Z,59.30
2022-08-11T17:40:40.299Z,59.30
2022-08-11T17:43:28.986Z,59.30
2022-08-11T17:46:15.596Z,59.00
2022-08-11T17:48:48.021Z,59.30
2022-08-11T17:51:38.367Z,59.00
2022-08-11T17:54:25.875Z,59.50
2022-08-11T17:57:20.502Z,59.80
2022-08-11T17:59:52.739Z,59.20
2022-08-11T18:02:48.739Z,59.20
2022-08-11T18:05:20.657Z,59.30
2022-08-11T18:08:12.263Z,59.50
2022-08-11T18:10:59.531Z,59.40
2022-08-11T18:13:49.568Z,59.80
2022-08-11T18:16:39.343Z,60.00
2022-08-11T18:19:30.697Z,60.30
2022-08-11T18:22:24.026Z,60.60
2022-08-11T18:25:16.108Z,60.80
2022-08-11T18:28:04.871Z,61.10
2022-08-11T18:31:03.250Z,61.10
2022-08-11T18:34:14.551Z,61.30
2022-08-11T18:37:28.561Z,61.60
2022-08-11T18:40:21.304Z,61.90
2022-08-11T18:43:08.389Z,62.10
2022-08-11T18:46:06.220Z,63.20
2022-08-11T18:48:56.596Z,62.80
2022-08-11T18:51:44.137Z,63.00
2022-08-11T18:54:30.958Z,63.20
2022-08-11T18:57:20.558Z,63.50
2022-08-11T19:00:08.440Z,63.90
2022-08-11T19:02:56.418Z,64.30
2022-08-11T19:06:35.810Z,64.40
2022-08-11T19:08:55.780Z,64.40
2022-08-11T19:11:46.647Z,64.60
2022-08-11T19:14:34.873Z,64.60
2022-08-11T19:17:45.158Z,64.90
2022-08-11T19:20:35.814Z,64.80
2022-08-11T19:23:24.966Z,65.10
2022-08-11T19:26:11.948Z,65.20
2022-08-11T19:28:59.776Z,65.40
2022-08-11T19:31:46.208Z,65.40
2022-08-11T19:34:37.232Z,65.70
2022-08-11T19:37:25.885Z,65.80
2022-08-11T19:40:23.268Z,66.00
2022-08-11T19:43:14.758Z,66.30
2022-08-11T19:46:11.888Z,66.40
2022-08-11T19:48:58.859Z,66.60
2022-08-11T19:51:46.280Z,66.90
2022-08-11T19:54:33.476Z,67.10
2022-08-11T19:57:23.532Z,67.10
2022-08-11T20:00:10.495Z,67.30
2022-08-11T20:02:56.206Z,67.30
2022-08-11T20:05:50.006Z,67.30
2022-08-11T20:08:43.282Z,67.40
2022-08-11T20:11:30.653Z,67.50
2022-08-11T20:14:17.013Z,67.70
2022-08-11T20:17:05.289Z,67.50
2022-08-11T20:19:57.402Z,67.60
2022-08-11T20:22:45.369Z,67.70
2022-08-11T20:25:32.585Z,68.10
2022-08-11T20:28:24.179Z,68.50
2022-08-11T20:31:12.251Z,68.90
2022-08-11T20:33:59.377Z,69.20
2022-08-11T20:36:49.928Z,69.10
2022-08-11T20:39:41.190Z,69.40
2022-08-11T20:42:30.475Z,69.50
2022-08-11T20:45:23.775Z,69.50
2022-08-11T20:48:14.819Z,70.00
2022-08-11T20:51:07.196Z,70.10
2022-08-11T20:53:59.279Z,70.10
2022-08-11T20:56:54.265Z,70.50
2022-08-11T20:59:56.380Z,70.50
2022-08-11T21:02:44.403Z,70.80
2022-08-11T21:06:09.964Z,71.20
2022-08-11T21:08:38.720Z,71.40
2022-08-11T21:11:29.178Z,71.80
2022-08-11T21:14:16.641Z,71.80
2022-08-11T21:17:27.078Z,72.20
2022-08-11T21:20:18.384Z,72.50
2022-08-11T21:23:24.171Z,73.10
2022-08-11T21:26:16.270Z,73.00
2022-08-11T21:29:03.409Z,73.10
2022-08-11T21:31:50.993Z,73.30
2022-08-11T21:34:39.673Z,73.40
2022-08-11T21:37:27.378Z,73.70
2022-08-11T21:40:17.525Z,73.90
2022-08-11T21:43:06.210Z,73.80
2022-08-11T21:45:55.301Z,74.40
2022-08-11T21:48:44.057Z,74.40
2022-08-11T21:51:29.998Z,74.20
2022-08-11T21:54:18.417Z,74.00
2022-08-11T21:57:05.825Z,74.30
2022-08-11T22:00:00.028Z,74.60
2022-08-11T22:02:50.918Z,74.70
2022-08-11T22:05:40.997Z,74.80
2022-08-11T22:08:27.672Z,76.10
2022-08-11T22:11:13.722Z,75.30
2022-08-11T22:14:06.143Z,75.60
2022-08-11T22:16:54.828Z,75.60
2022-08-11T22:19:41.657Z,76.20
2022-08-11T22:22:31.272Z,76.20
2022-08-11T22:25:18.829Z,76.80
2022-08-11T22:28:07.932Z,76.10
2022-08-11T22:30:53.526Z,76.20
2022-08-11T22:34:02.050Z,76.40
2022-08-11T22:36:47.754Z,76.30
2022-08-11T22:39:35.424Z,76.60
2022-08-11T22:42:24.103Z,76.70
2022-08-11T22:45:19.615Z,76.90
2022-08-11T22:48:06.685Z,77.40
2022-08-11T22:50:55.110Z,77.40
2022-08-11T22:53:58.074Z,77.70
2022-08-11T22:56:51.212Z,77.70
2022-08-11T22:59:38.580Z,77.80
2022-08-11T23:02:25.741Z,78.10
2022-08-11T23:05:12.782Z,78.50
2022-08-11T23:08:00.524Z,78.70
2022-08-11T23:10:48.343Z,78.80
2022-08-11T23:13:34.651Z,78.90
2022-08-11T23:16:21.345Z,79.10
2022-08-11T23:19:08.399Z,78.70
2022-08-11T23:21:54.485Z,78.70
2022-08-11T23:24:40.965Z,78.80
2022-08-11T23:27:28.414Z,78.90
2022-08-11T23:30:17.179Z,78.80
2022-08-11T23:33:07.003Z,79.30
2022-08-11T23:35:58.005Z,79.10
2022-08-11T23:38:47.433Z,79.20
2022-08-11T23:41:33.935Z,79.40
2022-08-11T23:44:21.577Z,80.10
2022-08-11T23:47:14.043Z,79.80
2022-08-11T23:50:01.685Z,79.80
2022-08-11T23:52:48.713Z,80.00
2022-08-11T23:55:38.545Z,80.10
2022-08-11T23:58:24.741Z,80.30
